createdAt,value
2016-04-12T00:00:25.329Z,10.69
2016-04-12T00:01:08.269Z,10.67
2016-04-12T00:01:51.240Z,10.62
2016-04-12T00:02:34.212Z,10.57
2016-04-12T00:03:17.150Z,10.67
2016-04-12T00:04:00.089Z,10.71
2016-04-12T00:04:43.045Z,10.77
2016-04-12T00:05:25.998Z,10.82
2016-04-12T00:06:08.953Z,10.8
2016-04-12T00:06:51.878Z,10.76
2016-04-12T00:07:34.834Z,10.8
2016-04-12T00:08:17.621Z,10.87
2016-04-12T00:09:00.286Z,10.86
2016-04-12T00:09:43.226Z,10.87
2016-04-12T00:10:26.179Z,10.8
2016-04-12T00:11:09.120Z,10.84
2016-04-12T00:11:51.919Z,10.86
2016-04-12T00:12:34.859Z,10.86
2016-04-12T00:13:17.812Z,10.86
2016-04-12T00:14:00.768Z,10.94
2016-04-12T00:14:43.708Z,10.84
2016-04-12T00:15:26.661Z,10.83
2016-04-12T00:16:09.617Z,10.89
2016-04-12T00:16:52.557Z,10.87
2016-04-12T00:17:35.513Z,10.86
2016-04-12T00:18:18.450Z,10.84
2016-04-12T00:19:01.406Z,10.84
2016-04-12T00:19:44.346Z,10.75
2016-04-12T00:20:27.299Z,10.77
2016-04-12T00:21:10.255Z,10.76
2016-04-12T00:21:53.226Z,10.71
2016-04-12T00:22:36.183Z,10.77
2016-04-12T00:23:19.136Z,10.76
2016-04-12T00:24:02.091Z,10.72
2016-04-12T00:24:45.032Z,10.76
2016-04-12T00:25:27.985Z,10.82
2016-04-12T00:26:10.956Z,10.65
2016-04-12T00:26:53.928Z,10.8
2016-04-12T00:27:36.883Z,10.68
2016-04-12T00:28:19.836Z,10.75
2016-04-12T00:29:02.793Z,10.77
2016-04-12T00:29:45.733Z,10.62
2016-04-12T00:30:28.528Z,10.71
2016-04-12T00:31:11.546Z,10.58
2016-04-12T00:31:54.041Z,10.69
2016-04-12T00:32:36.829Z,10.67
2016-04-12T00:33:19.782Z,10.71
2016-04-12T00:34:02.723Z,10.59
2016-04-12T00:34:45.662Z,10.58
2016-04-12T00:35:28.615Z,10.65
2016-04-12T00:36:11.587Z,10.65
2016-04-12T00:36:54.543Z,10.55
2016-04-12T00:37:37.499Z,10.57
2016-04-12T00:38:19.656Z,10.57
2016-04-12T00:39:02.596Z,10.51
2016-04-12T00:39:45.551Z,10.58
2016-04-12T00:40:28.504Z,10.65
2016-04-12T00:41:11.461Z,10.62
2016-04-12T00:41:54.416Z,10.67
2016-04-12T00:42:37.373Z,10.46
2016-04-12T00:43:20.326Z,10.49
2016-04-12T00:44:03.312Z,10.49
2016-04-12T00:44:46.267Z,10.49
2016-04-12T00:45:29.205Z,10.42
2016-04-12T00:46:12.162Z,10.41
2016-04-12T00:46:55.102Z,10.42
2016-04-12T00:47:38.073Z,10.42
2016-04-12T00:48:21.026Z,10.45
2016-04-12T00:49:03.982Z,10.51
2016-04-12T00:49:46.923Z,10.53
2016-04-12T00:50:29.861Z,10.49
2016-04-12T00:51:12.816Z,10.58
2016-04-12T00:51:55.787Z,10.59
2016-04-12T00:52:38.774Z,10.55
2016-04-12T00:53:21.711Z,10.68
2016-04-12T00:54:04.667Z,10.59
2016-04-12T00:54:47.608Z,10.61
2016-04-12T00:55:30.561Z,10.65
2016-04-12T00:56:13.517Z,10.62
2016-04-12T00:56:56.457Z,10.68
2016-04-12T00:57:39.412Z,10.58
2016-04-12T00:58:22.365Z,10.62
2016-04-12T00:59:05.322Z,10.58
2016-04-12T00:59:48.277Z,10.61
2016-04-12T01:00:31.215Z,10.59
2016-04-12T01:01:14.154Z,10.61
2016-04-12T01:01:56.955Z,10.59
2016-04-12T01:02:39.973Z,10.57
2016-04-12T01:03:22.910Z,10.62
2016-04-12T01:04:05.882Z,10.68
2016-04-12T01:04:48.837Z,10.61
2016-04-12T01:05:31.775Z,10.65
2016-04-12T01:06:14.746Z,10.62
2016-04-12T01:06:57.687Z,10.62
2016-04-12T01:07:40.674Z,10.64
2016-04-12T01:08:23.455Z,10.53
2016-04-12T01:09:06.426Z,10.58
2016-04-12T01:09:49.367Z,10.55
2016-04-12T01:10:32.320Z,10.45
2016-04-12T01:11:15.276Z,10.45
2016-04-12T01:11:58.232Z,10.51
2016-04-12T01:12:41.172Z,10.39
2016-04-12T01:13:24.125Z,10.42
2016-04-12T01:14:07.111Z,10.43
2016-04-12T01:14:50.067Z,10.42
2016-04-12T01:15:33.039Z,10.41
2016-04-12T01:16:15.976Z,10.43
2016-04-12T01:16:59.214Z,10.42
2016-04-12T01:17:42.231Z,10.42
2016-04-12T01:18:25.169Z,10.45
2016-04-12T01:19:08.141Z,10.59
2016-04-12T01:19:51.066Z,10.45
2016-04-12T01:20:34.036Z,10.45
2016-04-12T01:21:16.974Z,10.45
2016-04-12T01:21:59.914Z,10.49
2016-04-12T01:22:42.870Z,10.43
2016-04-12T01:23:25.824Z,10.51
2016-04-12T01:24:08.764Z,10.55
2016-04-12T01:24:51.735Z,10.43
2016-04-12T01:25:34.722Z,10.49
2016-04-12T01:26:17.660Z,10.57
2016-04-12T01:27:00.600Z,10.46
2016-04-12T01:27:42.555Z,10.42
2016-04-12T01:28:25.493Z,10.38
2016-04-12T01:29:08.449Z,10.45
2016-04-12T01:29:51.389Z,10.34
2016-04-12T01:30:34.360Z,10.33
2016-04-12T01:31:17.298Z,10.31
2016-04-12T01:32:00.316Z,10.33
2016-04-12T01:32:43.257Z,10.27
2016-04-12T01:33:26.194Z,10.27
2016-04-12T01:34:09.149Z,10.18
2016-04-12T01:34:52.106Z,10.18
2016-04-12T01:35:35.046Z,10.23
2016-04-12T01:36:17.984Z,10.06
2016-04-12T01:37:00.814Z,10.17
2016-04-12T01:37:43.770Z,10.06
2016-04-12T01:38:26.723Z,10
2016-04-12T01:39:09.679Z,9.92
2016-04-12T01:39:52.619Z,10.02
2016-04-12T01:40:35.575Z,9.91
2016-04-12T01:41:18.528Z,10.03
2016-04-12T01:42:01.515Z,9.97
2016-04-12T01:42:44.439Z,9.99
2016-04-12T01:43:27.392Z,10.09
2016-04-12T01:44:10.334Z,10.03
2016-04-12T01:44:53.273Z,10.03
2016-04-12T01:45:36.245Z,9.95
2016-04-12T01:46:19.182Z,10.06
2016-04-12T01:47:02.184Z,10.02
2016-04-12T01:47:45.234Z,9.99
2016-04-12T01:48:28.031Z,9.94
2016-04-12T01:49:10.987Z,9.94
2016-04-12T01:49:53.958Z,9.95
2016-04-12T01:50:36.899Z,10.03
2016-04-12T01:51:19.852Z,9.95
2016-04-12T01:52:02.792Z,10.05
2016-04-12T01:52:44.732Z,9.99
2016-04-12T01:53:27.529Z,10
2016-04-12T01:54:10.485Z,10.06
2016-04-12T01:54:53.441Z,9.95
2016-04-12T01:55:36.413Z,9.91
2016-04-12T01:56:19.350Z,10.02
2016-04-12T01:57:02.306Z,10
2016-04-12T01:57:45.246Z,9.99
2016-04-12T01:58:28.183Z,10
2016-04-12T01:59:11.138Z,10.05
2016-04-12T01:59:54.095Z,9.99
2016-04-12T02:00:37.035Z,10.02
2016-04-12T02:01:20.004Z,10.02
2016-04-12T02:02:03.147Z,9.95
2016-04-12T02:02:46.072Z,9.91
2016-04-12T02:03:28.994Z,9.88
2016-04-12T02:04:11.934Z,9.95
2016-04-12T02:04:54.921Z,9.88
2016-04-12T02:05:37.892Z,9.84
2016-04-12T02:06:20.876Z,9.81
2016-04-12T02:07:03.817Z,9.77
2016-04-12T02:07:46.773Z,9.73
2016-04-12T02:08:29.710Z,9.74
2016-04-12T02:09:12.665Z,9.85
2016-04-12T02:09:55.606Z,9.85
2016-04-12T02:10:38.577Z,9.88
2016-04-12T02:11:21.498Z,9.91
2016-04-12T02:12:04.470Z,9.87
2016-04-12T02:12:47.411Z,9.88
2016-04-12T02:13:30.364Z,9.85
2016-04-12T02:14:13.320Z,9.87
2016-04-12T02:14:56.259Z,9.87
2016-04-12T02:15:39.216Z,9.94
2016-04-12T02:16:22.153Z,9.88
2016-04-12T02:17:05.203Z,9.97
2016-04-12T02:17:48.268Z,9.92
2016-04-12T02:18:31.222Z,9.91
2016-04-12T02:19:14.178Z,9.88
2016-04-12T02:19:57.117Z,9.94
2016-04-12T02:20:40.073Z,9.84
2016-04-12T02:21:21.995Z,9.84
2016-04-12T02:22:04.951Z,9.87
2016-04-12T02:22:47.906Z,9.92
2016-04-12T02:23:30.875Z,9.88
2016-04-12T02:24:13.831Z,9.95
2016-04-12T02:24:56.772Z,9.91
2016-04-12T02:25:39.727Z,9.94
2016-04-12T02:26:22.680Z,9.95
2016-04-12T02:27:05.636Z,9.94
2016-04-12T02:27:48.607Z,9.99
2016-04-12T02:28:31.560Z,9.99
2016-04-12T02:29:14.501Z,9.99
2016-04-12T02:29:57.457Z,9.95
2016-04-12T02:30:40.412Z,9.92
2016-04-12T02:31:23.381Z,9.97
2016-04-12T02:32:06.399Z,9.99
2016-04-12T02:32:49.355Z,10.05
2016-04-12T02:33:32.324Z,9.94
2016-04-12T02:34:15.296Z,10.05
2016-04-12T02:34:58.252Z,10
2016-04-12T02:35:41.192Z,10
2016-04-12T02:36:24.130Z,10.09
2016-04-12T02:37:07.069Z,9.94
2016-04-12T02:37:50.041Z,9.99
2016-04-12T02:38:32.994Z,10.05
2016-04-12T02:39:15.934Z,9.94
2016-04-12T02:39:58.921Z,10.03
2016-04-12T02:40:41.846Z,10.05
2016-04-12T02:41:24.799Z,9.94
2016-04-12T02:42:07.614Z,9.95
2016-04-12T02:42:50.570Z,10.06
2016-04-12T02:43:33.523Z,10.06
2016-04-12T02:44:16.479Z,9.94
2016-04-12T02:44:59.420Z,9.94
2016-04-12T02:45:42.390Z,9.99
2016-04-12T02:46:25.343Z,9.97
2016-04-12T02:47:08.456Z,10
2016-04-12T02:47:51.458Z,9.92
2016-04-12T02:48:34.258Z,10.06
2016-04-12T02:49:17.195Z,9.95
2016-04-12T02:50:00.167Z,9.95
2016-04-12T02:50:42.310Z,10.02
2016-04-12T02:51:25.278Z,9.99
2016-04-12T02:52:08.203Z,9.97
2016-04-12T02:52:51.159Z,10.02
2016-04-12T02:53:34.099Z,10.02
2016-04-12T02:54:17.083Z,9.9
2016-04-12T02:55:00.039Z,9.88
2016-04-12T02:55:43.011Z,9.92
2016-04-12T02:56:25.949Z,9.87
2016-04-12T02:57:07.872Z,9.99
2016-04-12T02:57:50.844Z,9.9
2016-04-12T02:58:33.784Z,9.94
2016-04-12T02:59:16.737Z,9.91
2016-04-12T02:59:59.693Z,9.88
2016-04-12T03:00:42.665Z,9.97
2016-04-12T03:01:25.587Z,9.97
2016-04-12T03:02:08.636Z,9.97
2016-04-12T03:02:51.482Z,10
2016-04-12T03:03:34.454Z,9.97
2016-04-12T03:04:17.407Z,9.97
2016-04-12T03:05:00.394Z,9.97
2016-04-12T03:05:43.334Z,10.03
2016-04-12T03:06:26.271Z,9.9
2016-04-12T03:07:09.212Z,9.9
2016-04-12T03:07:52.199Z,9.88
2016-04-12T03:08:35.123Z,9.8
2016-04-12T03:09:18.076Z,9.74
2016-04-12T03:10:01.032Z,9.77
2016-04-12T03:10:44.004Z,9.74
2016-04-12T03:11:26.973Z,9.66
2016-04-12T03:12:09.945Z,9.64
2016-04-12T03:12:52.870Z,9.63
2016-04-12T03:13:35.840Z,9.63
2016-04-12T03:14:18.778Z,9.59
2016-04-12T03:15:01.734Z,9.63
2016-04-12T03:15:44.673Z,9.66
2016-04-12T03:16:27.642Z,9.63
2016-04-12T03:17:10.536Z,9.66
2016-04-12T03:17:53.554Z,9.58
2016-04-12T03:18:36.510Z,9.58
2016-04-12T03:19:19.463Z,9.56
2016-04-12T03:20:02.451Z,9.64
2016-04-12T03:20:45.423Z,9.56
2016-04-12T03:21:28.360Z,9.55
2016-04-12T03:22:11.300Z,9.48
2016-04-12T03:22:54.240Z,9.54
2016-04-12T03:23:37.195Z,9.54
2016-04-12T03:24:20.149Z,9.45
2016-04-12T03:25:03.105Z,9.51
2016-04-12T03:25:46.045Z,9.55
2016-04-12T03:26:28.998Z,9.56
2016-04-12T03:27:11.953Z,9.58
2016-04-12T03:27:54.910Z,9.55
2016-04-12T03:28:37.849Z,9.55
2016-04-12T03:29:20.802Z,9.55
2016-04-12T03:30:03.774Z,9.55
2016-04-12T03:30:46.746Z,9.58
2016-04-12T03:31:29.730Z,9.55
2016-04-12T03:32:12.779Z,9.47
2016-04-12T03:32:55.641Z,9.52
2016-04-12T03:33:38.582Z,9.55
2016-04-12T03:34:21.582Z,9.52
2016-04-12T03:35:04.522Z,9.49
2016-04-12T03:35:47.509Z,9.63
2016-04-12T03:36:30.290Z,9.55
2016-04-12T03:37:13.246Z,9.66
2016-04-12T03:37:56.187Z,9.62
2016-04-12T03:38:39.143Z,9.64
2016-04-12T03:39:22.096Z,9.7
2016-04-12T03:40:05.052Z,9.7
2016-04-12T03:40:47.991Z,9.81
2016-04-12T03:41:30.945Z,9.84
2016-04-12T03:42:13.901Z,9.85
2016-04-12T03:42:56.840Z,9.81
2016-04-12T03:43:39.781Z,9.9
2016-04-12T03:44:22.749Z,9.97
2016-04-12T03:45:05.674Z,10.02
2016-04-12T03:45:48.629Z,10.03
2016-04-12T03:46:31.583Z,10.05
2016-04-12T03:47:14.914Z,9.91
2016-04-12T03:47:58.103Z,10.07
2016-04-12T03:48:41.075Z,10.05
2016-04-12T03:49:24.028Z,10.09
2016-04-12T03:50:06.984Z,10.09
2016-04-12T03:50:49.924Z,10.15
2016-04-12T03:51:32.892Z,10.06
2016-04-12T03:52:15.849Z,10.07
2016-04-12T03:52:58.805Z,10.12
2016-04-12T03:53:41.761Z,10.13
2016-04-12T03:54:24.714Z,10.1
2016-04-12T03:55:07.670Z,10.09
2016-04-12T03:55:50.625Z,10.05
2016-04-12T03:56:33.563Z,10.1
2016-04-12T03:57:16.519Z,10.06
2016-04-12T03:57:59.474Z,10.15
2016-04-12T03:58:42.447Z,10.06
2016-04-12T03:59:25.400Z,10
2016-04-12T04:00:08.355Z,10.06
2016-04-12T04:00:51.311Z,10.07
2016-04-12T04:01:34.280Z,10.03
2016-04-12T04:02:17.251Z,10.15
2016-04-12T04:03:00.441Z,10.06
2016-04-12T04:03:43.382Z,10.09
2016-04-12T04:04:26.319Z,10.12
2016-04-12T04:05:09.306Z,10.02
2016-04-12T04:05:52.262Z,10.06
2016-04-12T04:06:35.215Z,10.03
2016-04-12T04:07:18.170Z,10.03
2016-04-12T04:08:01.110Z,10.06
2016-04-12T04:08:44.067Z,10.07
2016-04-12T04:09:27.036Z,10.07
2016-04-12T04:10:10.007Z,10.1
2016-04-12T04:10:52.947Z,10.06
2016-04-12T04:11:35.918Z,10
2016-04-12T04:12:18.840Z,10.02
2016-04-12T04:13:01.796Z,10.02
2016-04-12T04:13:44.737Z,10.03
2016-04-12T04:14:27.690Z,9.92
2016-04-12T04:15:10.692Z,10.09
2016-04-12T04:15:53.632Z,10
2016-04-12T04:16:36.572Z,10.03
2016-04-12T04:17:19.572Z,10
2016-04-12T04:18:01.529Z,10.05
2016-04-12T04:18:44.468Z,10.03
2016-04-12T04:19:27.453Z,10.05
2016-04-12T04:20:10.425Z,10.02
2016-04-12T04:20:53.364Z,10.05
2016-04-12T04:21:36.336Z,10.02
2016-04-12T04:22:19.289Z,10.06
2016-04-12T04:23:02.229Z,10.06
2016-04-12T04:23:45.200Z,9.94
2016-04-12T04:24:28.138Z,9.97
2016-04-12T04:25:11.094Z,9.97
2016-04-12T04:25:54.081Z,10
2016-04-12T04:26:37.022Z,10.06
2016-04-12T04:27:19.975Z,10.05
2016-04-12T04:28:02.930Z,10.09
2016-04-12T04:28:45.886Z,10
2016-04-12T04:29:28.839Z,10.05
2016-04-12T04:30:11.795Z,10.09
2016-04-12T04:30:54.766Z,9.99
2016-04-12T04:31:37.722Z,9.99
2016-04-12T04:32:20.675Z,10.05
2016-04-12T04:33:03.897Z,10.06
2016-04-12T04:33:46.852Z,10.02
2016-04-12T04:34:29.805Z,9.99
2016-04-12T04:35:11.996Z,10.09
2016-04-12T04:35:54.935Z,10.06
2016-04-12T04:36:37.908Z,10.03
2016-04-12T04:37:20.830Z,10.06
2016-04-12T04:38:03.769Z,10.17
2016-04-12T04:38:46.710Z,10.13
2016-04-12T04:39:29.663Z,10.12
2016-04-12T04:40:12.619Z,10.13
2016-04-12T04:40:55.559Z,10.2
2016-04-12T04:41:38.515Z,10.12
2016-04-12T04:42:21.484Z,10.15
2016-04-12T04:43:04.424Z,10.06
2016-04-12T04:43:47.364Z,10.07
2016-04-12T04:44:30.301Z,10.06
2016-04-12T04:45:13.273Z,10.03
2016-04-12T04:45:56.057Z,10.03
2016-04-12T04:46:39.012Z,10.03
2016-04-12T04:47:21.950Z,9.94
2016-04-12T04:48:04.796Z,9.95
2016-04-12T04:48:47.753Z,10.1
2016-04-12T04:49:30.690Z,10
2016-04-12T04:50:13.631Z,10.02
2016-04-12T04:50:56.601Z,9.92
2016-04-12T04:51:39.557Z,9.99
2016-04-12T04:52:22.511Z,10.02
2016-04-12T04:53:05.450Z,9.92
2016-04-12T04:53:48.407Z,10.05
2016-04-12T04:54:31.360Z,10.02
2016-04-12T04:55:14.331Z,9.94
2016-04-12T04:55:57.318Z,10
2016-04-12T04:56:40.258Z,10
2016-04-12T04:57:23.211Z,9.99
2016-04-12T04:58:06.166Z,9.95
2016-04-12T04:58:48.311Z,10
2016-04-12T04:59:31.280Z,10.05
2016-04-12T05:00:14.203Z,9.99
2016-04-12T05:00:57.144Z,10.05
2016-04-12T05:01:40.084Z,9.99
2016-04-12T05:02:23.038Z,10.02
2016-04-12T05:03:06.102Z,10.12
2016-04-12T05:03:49.043Z,10
2016-04-12T05:04:31.996Z,9.97
2016-04-12T05:05:14.936Z,10
2016-04-12T05:05:57.892Z,10.09
2016-04-12T05:06:40.847Z,10.05
2016-04-12T05:07:23.801Z,9.99
2016-04-12T05:08:06.600Z,9.99
2016-04-12T05:08:49.400Z,10.06
2016-04-12T05:09:32.369Z,10.05
2016-04-12T05:10:15.310Z,10.06
2016-04-12T05:10:58.306Z,10.12
2016-04-12T05:11:41.261Z,10.05
2016-04-12T05:12:24.214Z,10.12
2016-04-12T05:13:09.905Z,10.12
2016-04-12T05:13:52.861Z,10.13
2016-04-12T05:14:35.814Z,10.17
2016-04-12T05:15:18.753Z,10.17
2016-04-12T05:16:01.695Z,10.18
2016-04-12T05:16:44.665Z,10.3
2016-04-12T05:17:27.619Z,10.23
2016-04-12T05:18:10.684Z,10.28
2016-04-12T05:18:53.624Z,10.3
2016-04-12T05:19:36.592Z,10.31
2016-04-12T05:20:19.548Z,10.3
2016-04-12T05:21:02.520Z,10.34
2016-04-12T05:21:45.475Z,10.38
2016-04-12T05:22:28.428Z,10.31
2016-04-12T05:23:11.369Z,10.42
2016-04-12T05:23:54.325Z,10.41
2016-04-12T05:24:37.325Z,10.36
2016-04-12T05:25:20.281Z,10.33
2016-04-12T05:26:03.253Z,10.33
2016-04-12T05:26:46.208Z,10.34
2016-04-12T05:27:29.161Z,10.34
2016-04-12T05:28:12.149Z,10.36
2016-04-12T05:28:55.119Z,10.33
2016-04-12T05:29:38.075Z,10.34
2016-04-12T05:30:21.029Z,10.38
2016-04-12T05:31:03.985Z,10.34
2016-04-12T05:31:46.924Z,10.43
2016-04-12T05:32:29.862Z,10.42
2016-04-12T05:33:12.833Z,10.43
2016-04-12T05:33:55.773Z,10.45
2016-04-12T05:34:38.746Z,10.41
2016-04-12T05:35:22.246Z,10.45
2016-04-12T05:36:07.029Z,10.41
2016-04-12T05:36:53.140Z,10.39
2016-04-12T05:37:36.656Z,10.43
2016-04-12T05:38:19.597Z,10.41
2016-04-12T05:39:02.412Z,10.46
2016-04-12T05:39:45.352Z,10.39
2016-04-12T05:40:28.306Z,10.46
2016-04-12T05:41:12.262Z,10.53
2016-04-12T05:41:56.295Z,10.49
2016-04-12T05:42:39.267Z,10.53
2016-04-12T05:43:22.360Z,10.55
2016-04-12T05:44:05.956Z,10.55
2016-04-12T05:44:49.929Z,10.61
2016-04-12T05:45:33.413Z,10.51
2016-04-12T05:46:16.822Z,10.55
2016-04-12T05:46:59.778Z,10.62
2016-04-12T05:47:42.733Z,10.59
2016-04-12T05:48:25.405Z,10.58
2016-04-12T05:49:08.345Z,10.59
2016-04-12T05:49:51.395Z,10.68
2016-04-12T05:50:34.614Z,10.58
2016-04-12T05:51:17.631Z,10.64
2016-04-12T05:52:01.275Z,10.62
2016-04-12T05:52:45.559Z,10.8
2016-04-12T05:53:29.825Z,10.79
2016-04-12T05:54:15.281Z,10.84
2016-04-12T05:54:59.892Z,10.82
2016-04-12T05:55:43.114Z,10.9
2016-04-12T05:56:27.192Z,10.9
2016-04-12T05:57:11.570Z,10.84
2016-04-12T05:57:55.604Z,10.83
2016-04-12T05:58:45.997Z,10.87
2016-04-12T05:59:30.028Z,10.9
2016-04-12T06:00:14.672Z,10.87
2016-04-12T06:00:58.643Z,10.86
2016-04-12T06:01:42.505Z,10.95
2016-04-12T06:02:26.974Z,10.89
2016-04-12T06:03:10.961Z,10.92
2016-04-12T06:03:54.824Z,10.92
2016-04-12T06:04:38.857Z,10.92
2016-04-12T06:05:22.623Z,10.97
2016-04-12T06:06:05.859Z,10.95
2016-04-12T06:06:48.972Z,10.87
2016-04-12T06:07:31.254Z,10.94
2016-04-12T06:08:14.287Z,11
2016-04-12T06:08:57.243Z,10.97
2016-04-12T06:09:40.183Z,11.04
2016-04-12T06:10:23.137Z,11.02
2016-04-12T06:11:06.092Z,10.98
2016-04-12T06:11:49.048Z,11
2016-04-12T06:12:32.001Z,11.01
2016-04-12T06:13:14.972Z,11.01
2016-04-12T06:13:58.131Z,11.01
2016-04-12T06:14:41.306Z,11.05
2016-04-12T06:15:24.306Z,11.12
2016-04-12T06:16:07.262Z,11.07
2016-04-12T06:16:50.217Z,11.12
2016-04-12T06:17:33.264Z,11.15
2016-04-12T06:18:16.220Z,11.16
2016-04-12T06:18:59.192Z,11.07
2016-04-12T06:19:42.131Z,11.07
2016-04-12T06:20:25.100Z,11.12
2016-04-12T06:21:08.056Z,11.13
2016-04-12T06:21:51.012Z,11.02
2016-04-12T06:22:33.965Z,11.22
2016-04-12T06:23:16.906Z,11.22
2016-04-12T06:23:59.861Z,11.2
2016-04-12T06:24:42.833Z,11.26
2016-04-12T06:25:25.802Z,11.25
2016-04-12T06:26:08.617Z,11.33
2016-04-12T06:26:51.557Z,11.35
2016-04-12T06:27:34.525Z,11.25
2016-04-12T06:28:17.449Z,11.31
2016-04-12T06:29:00.422Z,11.31
2016-04-12T06:29:43.377Z,11.26
2016-04-12T06:30:26.330Z,11.3
2016-04-12T06:31:09.286Z,11.27
2016-04-12T06:31:52.242Z,11.26
2016-04-12T06:32:35.196Z,11.27
2016-04-12T06:33:18.151Z,11.34
2016-04-12T06:34:00.951Z,11.26
2016-04-12T06:34:43.891Z,11.4
2016-04-12T06:35:26.844Z,11.35
2016-04-12T06:36:09.832Z,11.45
2016-04-12T06:36:52.802Z,11.45
2016-04-12T06:37:35.771Z,11.45
2016-04-12T06:38:18.743Z,11.53
2016-04-12T06:39:01.715Z,11.6
2016-04-12T06:39:44.655Z,11.62
2016-04-12T06:40:27.624Z,11.65
2016-04-12T06:41:10.579Z,11.73
2016-04-12T06:41:53.597Z,11.71
2016-04-12T06:42:36.565Z,11.76
2016-04-12T06:43:19.537Z,11.76
2016-04-12T06:44:02.478Z,11.86
2016-04-12T06:44:45.637Z,11.86
2016-04-12T06:45:28.590Z,11.89
2016-04-12T06:46:11.404Z,11.91
2016-04-12T06:46:54.392Z,11.93
2016-04-12T06:47:37.798Z,11.99
2016-04-12T06:48:20.770Z,12.1
2016-04-12T06:49:03.741Z,12
2016-04-12T06:49:46.681Z,12.08
2016-04-12T06:50:29.650Z,12.07
2016-04-12T06:51:12.590Z,12.02
2016-04-12T06:51:55.593Z,12.07
2016-04-12T06:52:38.546Z,12.14
2016-04-12T06:53:21.517Z,12.15
2016-04-12T06:54:04.458Z,12.15
2016-04-12T06:54:47.429Z,12.15
2016-04-12T06:55:30.383Z,12.14
2016-04-12T06:56:13.323Z,12.08
2016-04-12T06:56:56.278Z,12.1
2016-04-12T06:57:39.247Z,12
2016-04-12T06:58:22.203Z,12.1
2016-04-12T06:59:05.174Z,12.07
2016-04-12T06:59:48.114Z,12.08
2016-04-12T07:00:31.052Z,12.11
2016-04-12T07:01:14.023Z,12.12
2016-04-12T07:01:56.979Z,11.97
2016-04-12T07:02:39.950Z,12.05
2016-04-12T07:03:22.904Z,12
2016-04-12T07:04:05.750Z,12.05
2016-04-12T07:04:48.580Z,12
2016-04-12T07:05:31.534Z,12
2016-04-12T07:06:14.490Z,12
2016-04-12T07:06:57.446Z,12.07
2016-04-12T07:07:40.401Z,12.11
2016-04-12T07:08:23.354Z,12.17
2016-04-12T07:09:06.310Z,12.15
2016-04-12T07:09:49.282Z,12.18
2016-04-12T07:10:32.251Z,12.23
2016-04-12T07:11:15.206Z,12.21
2016-04-12T07:11:57.990Z,12.23
2016-04-12T07:12:40.962Z,12.18
2016-04-12T07:13:23.915Z,12.14
2016-04-12T07:14:06.902Z,12.26
2016-04-12T07:14:49.842Z,12.26
2016-04-12T07:15:32.811Z,12.39
2016-04-12T07:16:15.767Z,12.4
2016-04-12T07:16:58.738Z,12.45
2016-04-12T07:17:41.662Z,12.55
2016-04-12T07:18:24.662Z,12.51
2016-04-12T07:19:07.650Z,12.57
2016-04-12T07:19:50.450Z,12.62
2016-04-12T07:20:33.403Z,12.53
2016-04-12T07:21:16.359Z,12.48
2016-04-12T07:21:59.314Z,12.58
2016-04-12T07:22:42.286Z,12.53
2016-04-12T07:23:25.254Z,12.61
2016-04-12T07:24:08.194Z,12.66
2016-04-12T07:24:51.150Z,12.7
2016-04-12T07:25:34.119Z,12.66
2016-04-12T07:26:17.075Z,12.66
2016-04-12T07:27:00.047Z,12.72
2016-04-12T07:27:43.111Z,12.83
2016-04-12T07:28:26.080Z,12.94
2016-04-12T07:29:09.036Z,12.95
2016-04-12T07:29:51.992Z,13.01
2016-04-12T07:30:34.961Z,13.12
2016-04-12T07:31:17.791Z,13.19
2016-04-12T07:32:00.747Z,13.27
2016-04-12T07:32:43.703Z,13.31
2016-04-12T07:33:26.672Z,13.43
2016-04-12T07:34:09.628Z,13.39
2016-04-12T07:34:52.615Z,13.52
2016-04-12T07:35:35.552Z,13.6
2016-04-12T07:36:18.507Z,13.61
2016-04-12T07:37:01.464Z,13.64
2016-04-12T07:37:44.435Z,13.58
2016-04-12T07:38:27.373Z,13.73
2016-04-12T07:39:10.344Z,13.67
2016-04-12T07:39:53.285Z,13.79
2016-04-12T07:40:36.269Z,13.68
2016-04-12T07:41:19.224Z,13.73
2016-04-12T07:42:02.183Z,13.82
2016-04-12T07:42:45.203Z,13.93
2016-04-12T07:43:28.172Z,14
2016-04-12T07:44:11.176Z,14
2016-04-12T07:44:54.179Z,14.12
2016-04-12T07:45:37.148Z,14.19
2016-04-12T07:46:20.169Z,14.22
2016-04-12T07:47:03.185Z,14.26
2016-04-12T07:47:46.159Z,14.3
2016-04-12T07:48:29.096Z,14.38
2016-04-12T07:49:12.084Z,14.43
2016-04-12T07:49:55.058Z,14.71
2016-04-12T07:50:38.042Z,14.77
2016-04-12T07:51:21.015Z,14.92
2016-04-12T07:52:04.034Z,14.87
2016-04-12T07:52:47.012Z,14.99
2016-04-12T07:53:29.965Z,15.14
2016-04-12T07:54:12.926Z,15.32
2016-04-12T07:54:55.904Z,15.5
2016-04-12T07:55:38.873Z,15.54
2016-04-12T07:56:21.866Z,15.7
2016-04-12T07:57:04.813Z,15.84
2016-04-12T07:57:47.771Z,15.87
2016-04-12T07:58:30.724Z,16.08
2016-04-12T07:59:13.698Z,16.29
2016-04-12T07:59:56.687Z,16.49
2016-04-12T08:00:39.625Z,16.73
2016-04-12T08:01:22.597Z,16.89
2016-04-12T08:02:05.571Z,17.09
2016-04-12T08:02:48.544Z,17.2
2016-04-12T08:03:31.544Z,17.34
2016-04-12T08:04:14.485Z,17.68
2016-04-12T08:04:57.473Z,17.68
2016-04-12T08:05:40.426Z,17.52
2016-04-12T08:06:23.398Z,17.72
2016-04-12T08:07:06.370Z,17.66
2016-04-12T08:07:49.342Z,17.5
2016-04-12T08:08:32.316Z,17.49
2016-04-12T08:09:15.272Z,17.57
2016-04-12T08:09:58.243Z,17.44
2016-04-12T08:10:41.211Z,17.59
2016-04-12T08:11:24.184Z,17.28
2016-04-12T08:12:07.140Z,17.42
2016-04-12T08:12:50.111Z,17.42
2016-04-12T08:13:33.064Z,17.56
2016-04-12T08:14:16.041Z,17.56
2016-04-12T08:14:58.997Z,17.69
2016-04-12T08:15:41.969Z,17.57
2016-04-12T08:16:24.922Z,17.46
2016-04-12T08:17:07.894Z,17.39
2016-04-12T08:17:50.849Z,17.3
2016-04-12T08:18:33.802Z,17.19
2016-04-12T08:19:16.773Z,17.22
2016-04-12T08:19:59.745Z,17.19
2016-04-12T08:20:42.700Z,17.23
2016-04-12T08:21:25.654Z,17.37
2016-04-12T08:22:08.625Z,17.44
2016-04-12T08:22:51.612Z,17.57
2016-04-12T08:23:34.580Z,17.5
2016-04-12T08:24:17.553Z,17.57
2016-04-12T08:25:00.508Z,17.65
2016-04-12T08:25:43.479Z,17.75
2016-04-12T08:26:26.448Z,17.86
2016-04-12T08:27:09.435Z,17.78
2016-04-12T08:27:52.407Z,18
2016-04-12T08:28:35.360Z,18.21
2016-04-12T08:29:18.316Z,18.46
2016-04-12T08:30:01.272Z,18.7
2016-04-12T08:30:44.243Z,18.85
2016-04-12T08:31:27.196Z,18.86
2016-04-12T08:32:10.168Z,19.05
2016-04-12T08:32:53.123Z,19.24
2016-04-12T08:33:36.092Z,19.48
2016-04-12T08:34:19.048Z,19.63
2016-04-12T08:35:02.035Z,19.79
2016-04-12T08:35:44.991Z,19.99
2016-04-12T08:36:27.960Z,20.02
2016-04-12T08:37:10.915Z,19.93
2016-04-12T08:37:53.887Z,19.81
2016-04-12T08:38:36.871Z,19.81
2016-04-12T08:39:19.843Z,19.67
2016-04-12T08:40:02.815Z,19.62
2016-04-12T08:40:45.770Z,19.77
2016-04-12T08:41:28.739Z,19.93
2016-04-12T08:42:11.711Z,20.1
2016-04-12T08:42:54.667Z,20.3
2016-04-12T08:43:37.651Z,20.4
2016-04-12T08:44:20.606Z,20.6
2016-04-12T08:45:03.562Z,20.6
2016-04-12T08:45:46.518Z,20.63
2016-04-12T08:46:29.331Z,20.89
2016-04-12T08:47:12.302Z,21.05
2016-04-12T08:47:55.258Z,20.89
2016-04-12T08:48:38.242Z,21.04
2016-04-12T08:49:21.214Z,21.23
2016-04-12T08:50:04.185Z,21.43
2016-04-12T08:50:47.156Z,21.54
2016-04-12T08:51:30.141Z,21.75
2016-04-12T08:52:13.113Z,21.88
2016-04-12T08:52:56.083Z,22.14
2016-04-12T08:53:39.052Z,22.33
2016-04-12T08:54:22.039Z,22.47
2016-04-12T08:55:05.058Z,22.47
2016-04-12T08:55:48.030Z,22.61
2016-04-12T08:56:30.983Z,22.33
2016-04-12T08:57:14.188Z,22.23
2016-04-12T08:57:57.144Z,21.94
2016-04-12T08:58:40.097Z,22.18
2016-04-12T08:59:23.053Z,22.18
2016-04-12T09:00:06.040Z,22.22
2016-04-12T09:00:49.027Z,22.41
2016-04-12T09:01:31.996Z,22.52
2016-04-12T09:02:14.999Z,22.49
2016-04-12T09:02:57.970Z,22.37
2016-04-12T09:03:40.782Z,22.19
2016-04-12T09:04:23.738Z,21.97
2016-04-12T09:05:06.709Z,21.75
2016-04-12T09:05:49.696Z,21.89
2016-04-12T09:06:32.650Z,22.07
2016-04-12T09:07:15.606Z,22.18
2016-04-12T09:07:58.562Z,22.47
2016-04-12T09:08:41.702Z,22.71
2016-04-12T09:09:24.678Z,22.88
2016-04-12T09:10:07.634Z,22.77
2016-04-12T09:10:50.622Z,22.68
2016-04-12T09:11:33.590Z,22.93
2016-04-12T09:12:16.562Z,22.98
2016-04-12T09:12:59.533Z,23.11
2016-04-12T09:13:42.486Z,23.1
2016-04-12T09:14:25.473Z,23.33
2016-04-12T09:15:08.460Z,23.33
2016-04-12T09:15:51.416Z,23.37
2016-04-12T09:16:34.244Z,23.62
2016-04-12T09:17:17.216Z,23.79
2016-04-12T09:18:00.203Z,23.77
2016-04-12T09:18:43.062Z,23.85
2016-04-12T09:19:26.268Z,23.84
2016-04-12T09:20:09.208Z,23.86
2016-04-12T09:20:52.179Z,23.96